Time,TemperatureF,DewpointF,PressureIn,WindDirection,WindDirectionDegrees,WindSpeedMPH,WindSpeedGustMPH,Humidity,HourlyPrecipIn,Conditions,Clouds,dailyrainin,SoftwareType,DateUTC
2013-05-27 00:02:00,49.5,49.3,29.98,South,186,9.0,18.0,99,0.01,,,0.23,meteohub,2013-05-26 11:02:00,
2013-05-27 00:07:00,49.5,49.3,29.98,WSW,247,11.0,18.0,99,0.01,,,0.23,meteohub,2013-05-26 11:07:00,
2013-05-27 00:12:00,49.5,49.3,29.98,SW,226,9.0,18.0,99,0.00,,,0.23,meteohub,2013-05-26 11:12:00,
2013-05-27 00:17:00,49.5,49.3,29.98,SSW,207,9.0,17.0,99,0.00,,,0.23,meteohub,2013-05-26 11:17:00,
2013-05-27 00:22:00,49.3,49.1,29.98,WNW,283,6.0,17.0,99,0.00,,,0.23,meteohub,2013-05-26 11:22:00,
2013-05-27 00:27:00,49.3,49.1,29.98,SSW,212,8.0,17.0,99,0.00,,,0.23,meteohub,2013-05-26 11:27:00,
2013-05-27 00:32:00,49.3,49.1,29.98,WSW,243,9.0,17.0,99,0.00,,,0.23,meteohub,2013-05-26 11:32:00,
2013-05-27 00:37:00,49.3,49.1,29.98,SSW,199,12.0,17.0,99,0.00,,,0.23,meteohub,2013-05-26 11:37:00,
2013-05-27 00:42:00,49.3,49.1,29.98,SW,223,10.0,17.0,99,0.00,,,0.23,meteohub,2013-05-26 11:42:00,
2013-05-27 00:47:00,49.3,49.1,29.99,SSW,213,6.0,17.0,99,0.00,,,0.23,meteohub,2013-05-26 11:47:00,
2013-05-27 00:52:00,49.1,48.9,29.99,SSW,209,8.0,17.0,99,0.00,,,0.23,meteohub,2013-05-26 11:52:00,
2013-05-27 00:57:00,48.9,48.7,29.99,NE,39,6.0,16.0,99,0.00,,,0.23,meteohub,2013-05-26 11:57:00,
2013-05-27 01:02:00,48.9,48.7,29.99,SW,214,8.0,15.0,99,0.00,,,0.23,meteohub,2013-05-26 12:02:00,
2013-05-27 01:08:00,48.9,48.7,29.99,WSW,238,4.0,17.0,99,0.00,,,0.23,meteohub,2013-05-26 12:08:00,
2013-05-27 01:13:00,48.9,48.7,29.99,SSW,203,6.0,17.0,99,0.00,,,0.23,meteohub,2013-05-26 12:13:00,
2013-05-27 01:18:00,48.9,48.7,29.99,SW,224,13.0,17.0,99,0.00,,,0.23,meteohub,2013-05-26 12:18:00,
2013-05-27 01:23:00,48.9,48.7,29.99,SW,215,13.0,15.0,99,0.00,,,0.23,meteohub,2013-05-26 12:23:00,
2013-05-27 01:28:00,48.9,48.7,29.99,SE,146,10.0,14.0,99,0.01,,,0.24,meteohub,2013-05-26 12:28:00,
2013-05-27 01:33:00,48.9,48.7,29.99,SW,226,6.0,16.0,99,0.01,,,0.24,meteohub,2013-05-26 12:33:00,
2013-05-27 01:38:00,48.9,48.7,29.99,SSE,165,5.0,16.0,99,0.01,,,0.24,meteohub,2013-05-26 12:38:00,
2013-05-27 01:43:00,48.7,48.6,29.99,WSW,245,7.0,16.0,99,0.01,,,0.24,meteohub,2013-05-26 12:43:00,
2013-05-27 01:48:00,48.7,48.6,30.00,SW,229,7.0,16.0,99,0.01,,,0.24,meteohub,2013-05-26 12:48:00,
2013-05-27 01:53:00,48.7,48.6,30.00,SW,236,9.0,16.0,99,0.01,,,0.24,meteohub,2013-05-26 12:53:00,
2013-05-27 01:58:00,48.7,48.6,30.00,SSW,197,3.0,14.0,99,0.01,,,0.24,meteohub,2013-05-26 12:58:00,
2013-05-27 02:03:00,48.7,48.6,30.00,SSW,205,3.0,14.0,99,0.01,,,0.24,meteohub,2013-05-26 13:03:00,
2013-05-27 02:08:00,48.7,48.6,30.00,SSW,203,4.0,14.0,99,0.01,,,0.24,meteohub,2013-05-26 13:08:00,
2013-05-27 02:13:00,48.7,48.6,30.00,ESE,117,4.0,14.0,99,0.01,,,0.24,meteohub,2013-05-26 13:13:00,
2013-05-27 02:18:00,48.7,48.6,30.00,SSW,207,7.0,13.0,99,0.01,,,0.24,meteohub,2013-05-26 13:18:00,
2013-05-27 02:23:00,48.7,48.6,30.00,ESE,120,4.0,14.0,99,0.00,,,0.24,meteohub,2013-05-26 13:23:00,
2013-05-27 02:28:00,48.6,48.4,30.00,SSW,207,8.0,14.0,99,0.00,,,0.24,meteohub,2013-05-26 13:28:00,
2013-05-27 02:33:00,48.4,48.2,30.00,West,261,6.0,14.0,99,0.00,,,0.24,meteohub,2013-05-26 13:33:00,
2013-05-27 02:38:00,48.4,48.2,30.00,East,85,5.0,13.0,99,0.00,,,0.24,meteohub,2013-05-26 13:38:00,
2013-05-27 02:43:00,48.4,48.2,30.00,SSW,199,8.0,16.0,99,0.00,,,0.24,meteohub,2013-05-26 13:43:00,
2013-05-27 02:48:00,48.6,48.4,30.01,South,191,7.0,16.0,99,0.00,,,0.24,meteohub,2013-05-26 13:48:00,
2013-05-27 02:53:00,48.6,48.4,30.01,SW,220,5.0,16.0,99,0.00,,,0.24,meteohub,2013-05-26 13:53:00,
2013-05-27 02:58:00,48.7,48.6,30.01,SSE,161,6.0,13.0,99,0.00,,,0.24,meteohub,2013-05-26 13:58:00,
2013-05-27 03:04:00,48.6,48.4,30.01,SSW,210,4.0,12.0,99,0.00,,,0.24,meteohub,2013-05-26 14:04:00,
2013-05-27 03:09:00,48.6,48.4,30.01,ESE,120,3.0,13.0,99,0.00,,,0.24,meteohub,2013-05-26 14:09:00,
2013-05-27 03:14:00,48.6,48.4,30.01,East,94,4.0,13.0,99,0.00,,,0.24,meteohub,2013-05-26 14:14:00,
2013-05-27 03:19:00,48.7,48.6,30.01,SSW,207,8.0,15.0,99,0.00,,,0.24,meteohub,2013-05-26 14:19:00,
2013-05-27 03:24:00,48.7,48.6,30.01,SW,218,10.0,15.0,99,0.00,,,0.24,meteohub,2013-05-26 14:24:00,
2013-05-27 03:29:00,48.9,48.7,30.02,SW,221,15.0,15.0,99,0.00,,,0.24,meteohub,2013-05-26 14:29:00,
2013-05-27 03:34:00,48.9,48.7,30.02,SW,225,10.0,15.0,99,0.00,,,0.24,meteohub,2013-05-26 14:34:00,
2013-05-27 03:39:00,49.1,48.9,30.02,SSW,207,7.0,15.0,99,0.00,,,0.24,meteohub,2013-05-26 14:39:00,
2013-05-27 03:44:00,49.1,48.9,30.02,SW,219,5.0,15.0,99,0.00,,,0.24,meteohub,2013-05-26 14:44:00,
2013-05-27 03:49:00,49.1,48.9,30.02,WSW,237,10.0,15.0,99,0.00,,,0.24,meteohub,2013-05-26 14:49:00,
2013-05-27 03:54:00,48.9,48.7,30.02,SW,224,12.0,15.0,99,0.00,,,0.24,meteohub,2013-05-26 14:54:00,
2013-05-27 03:59:00,48.9,48.7,30.02,NW,311,4.0,15.0,99,0.00,,,0.24,meteohub,2013-05-26 14:59:00,
2013-05-27 04:04:00,49.1,48.9,30.02,SW,229,5.0,15.0,99,0.00,,,0.24,meteohub,2013-05-26 15:04:00,
2013-05-27 04:09:00,49.3,49.1,30.03,SSW,207,9.0,16.0,99,0.00,,,0.24,meteohub,2013-05-26 15:09:00,
2013-05-27 04:14:00,49.1,48.9,30.03,SSE,155,5.0,16.0,99,0.00,,,0.24,meteohub,2013-05-26 15:14:00,
2013-05-27 04:19:00,49.3,49.1,30.03,SW,236,7.0,16.0,99,0.00,,,0.24,meteohub,2013-05-26 15:19:00,
2013-05-27 04:24:00,49.3,49.1,30.03,South,190,5.0,14.0,99,0.00,,,0.24,meteohub,2013-05-26 15:24:00,
2013-05-27 04:29:00,49.3,49.1,30.03,SE,132,6.0,14.0,99,0.00,,,0.24,meteohub,2013-05-26 15:29:00,
2013-05-27 04:34:00,49.3,49.1,30.03,SW,222,6.0,14.0,99,0.00,,,0.24,meteohub,2013-05-26 15:34:00,
2013-05-27 04:39:00,49.5,49.3,30.03,SW,231,4.0,14.0,99,0.00,,,0.24,meteohub,2013-05-26 15:39:00,
2013-05-27 04:44:00,49.5,49.3,30.03,SW,233,10.0,14.0,99,0.00,,,0.24,meteohub,2013-05-26 15:44:00,
2013-05-27 04:49:00,49.5,48.9,30.03,WSW,239,7.0,15.0,98,0.00,,,0.24,meteohub,2013-05-26 15:49:00,
2013-05-27 04:54:00,50.2,49.8,30.03,SW,221,16.0,16.0,99,0.00,,,0.24,meteohub,2013-05-26 15:54:00,
2013-05-27 04:59:00,49.6,49.1,30.03,SE,143,11.0,15.0,98,0.00,,,0.24,meteohub,2013-05-26 15:59:00,
2013-05-27 05:05:00,49.5,48.9,30.03,SW,226,4.0,16.0,98,0.00,,,0.24,meteohub,2013-05-26 16:05:00,
2013-05-27 05:10:00,49.8,49.5,30.03,SW,231,6.0,18.0,99,0.00,,,0.24,meteohub,2013-05-26 16:10:00,
2013-05-27 05:15:00,50.0,49.6,30.03,SSE,158,9.0,18.0,99,0.00,,,0.24,meteohub,2013-05-26 16:15:00,
2013-05-27 05:20:00,49.8,49.3,30.03,SW,218,11.0,18.0,98,0.00,,,0.24,meteohub,2013-05-26 16:20:00,
2013-05-27 05:25:00,50.2,49.6,30.04,SSW,200,9.0,19.0,98,0.00,,,0.24,meteohub,2013-05-26 16:25:00,
2013-05-27 05:30:00,50.4,49.8,30.04,SW,229,11.0,19.0,98,0.00,,,0.24,meteohub,2013-05-26 16:30:00,
2013-05-27 05:35:00,50.0,49.5,30.04,SSW,201,18.0,19.0,98,0.00,,,0.24,meteohub,2013-05-26 16:35:00,
2013-05-27 05:40:00,50.2,49.6,30.04,SW,231,13.0,21.0,98,0.00,,,0.24,meteohub,2013-05-26 16:40:00,
2013-05-27 05:45:00,50.2,49.6,30.04,South,188,14.0,21.0,98,0.00,,,0.24,meteohub,2013-05-26 16:45:00,
2013-05-27 05:50:00,50.5,49.6,30.04,SW,214,13.0,21.0,97,0.00,,,0.24,meteohub,2013-05-26 16:50:00,
2013-05-27 05:55:00,50.4,49.5,30.04,WSW,238,12.0,20.0,97,0.00,,,0.24,meteohub,2013-05-26 16:55:00,
2013-05-27 06:00:00,50.7,49.6,30.04,SW,230,12.0,20.0,96,0.00,,,0.24,meteohub,2013-05-26 17:00:00,
2013-05-27 06:05:00,50.7,49.3,30.04,WSW,244,12.0,19.0,95,0.00,,,0.24,meteohub,2013-05-26 17:05:00,
2013-05-27 06:10:00,51.1,49.6,30.04,SSW,207,11.0,19.0,95,0.00,,,0.24,meteohub,2013-05-26 17:10:00,
2013-05-27 06:15:00,51.3,49.3,30.04,WSW,240,14.0,19.0,93,0.00,,,0.24,meteohub,2013-05-26 17:15:00,
2013-05-27 06:20:00,51.3,49.3,30.04,SW,221,12.0,17.0,93,0.00,,,0.24,meteohub,2013-05-26 17:20:00,
2013-05-27 06:25:00,50.7,48.7,30.04,SW,221,11.0,20.0,93,0.00,,,0.24,meteohub,2013-05-26 17:25:00,
2013-05-27 06:30:00,50.5,48.9,30.04,SW,214,5.0,20.0,94,0.00,,,0.24,meteohub,2013-05-26 17:30:00,
2013-05-27 06:35:00,51.1,49.5,30.04,SW,217,5.0,15.0,94,0.00,,,0.24,meteohub,2013-05-26 17:35:00,
2013-05-27 06:40:00,51.4,49.5,30.04,SSW,207,5.0,15.0,93,0.00,,,0.24,meteohub,2013-05-26 17:40:00,
2013-05-27 06:45:00,51.3,49.3,30.04,SW,233,8.0,13.0,93,0.00,,,0.24,meteohub,2013-05-26 17:45:00,
2013-05-27 06:50:00,51.4,49.8,30.04,SW,231,8.0,15.0,94,0.00,,,0.24,meteohub,2013-05-26 17:50:00,
2013-05-27 06:55:00,51.4,49.5,30.04,SW,226,6.0,15.0,93,0.00,,,0.24,meteohub,2013-05-26 17:55:00,
2013-05-27 07:00:00,51.4,49.3,30.04,WSW,242,10.0,15.0,92,0.00,,,0.24,meteohub,2013-05-26 18:00:00,
2013-05-27 07:06:00,51.4,48.6,30.04,WSW,243,11.0,15.0,90,0.00,,,0.24,meteohub,2013-05-26 18:06:00,
2013-05-27 07:11:00,51.4,48.6,30.04,South,185,14.0,15.0,90,0.00,,,0.24,meteohub,2013-05-26 18:11:00,
2013-05-27 07:16:00,51.6,48.6,30.04,WSW,243,8.0,16.0,89,0.00,,,0.24,meteohub,2013-05-26 18:16:00,
2013-05-27 07:21:00,52.2,49.1,30.04,SSW,211,14.0,18.0,89,0.00,,,0.24,meteohub,2013-05-26 18:21:00,
2013-05-27 07:26:00,52.3,48.6,30.04,SSW,198,8.0,18.0,87,0.00,,,0.24,meteohub,2013-05-26 18:26:00,
2013-05-27 07:31:00,52.5,49.1,30.04,SSW,197,4.0,18.0,88,0.00,,,0.24,meteohub,2013-05-26 18:31:00,
2013-05-27 07:36:00,52.9,48.7,30.04,SW,228,6.0,17.0,86,0.00,,,0.24,meteohub,2013-05-26 18:36:00,
2013-05-27 07:41:00,53.1,48.7,30.05,SSW,196,13.0,17.0,85,0.00,,,0.24,meteohub,2013-05-26 18:41:00,
2013-05-27 07:46:00,53.1,49.3,30.04,SSW,192,8.0,16.0,87,0.00,,,0.24,meteohub,2013-05-26 18:46:00,
2013-05-27 07:51:00,53.1,48.9,30.04,South,173,7.0,16.0,86,0.00,,,0.24,meteohub,2013-05-26 18:51:00,
2013-05-27 07:56:00,53.2,48.9,30.04,SW,215,4.0,16.0,85,0.00,,,0.24,meteohub,2013-05-26 18:56:00,
2013-05-27 08:01:00,54.0,50.2,30.04,South,181,6.0,18.0,87,0.00,,,0.24,meteohub,2013-05-26 19:01:00,
2013-05-27 08:06:00,53.4,49.1,30.05,West,262,19.0,21.0,85,0.00,,,0.24,meteohub,2013-05-26 19:06:00,
2013-05-27 08:11:00,53.2,50.0,30.04,WSW,243,12.0,26.0,89,0.00,,,0.24,meteohub,2013-05-26 19:11:00,
2013-05-27 08:16:00,52.9,49.6,30.04,West,278,11.0,26.0,89,0.00,,,0.24,meteohub,2013-05-26 19:16:00,
2013-05-27 08:21:00,52.5,49.6,30.04,West,265,6.0,26.0,90,0.00,,,0.24,meteohub,2013-05-26 19:21:00,
2013-05-27 08:26:00,52.5,49.6,30.04,WSW,241,6.0,24.0,90,0.00,,,0.24,meteohub,2013-05-26 19:26:00,
2013-05-27 08:31:00,53.1,49.3,30.04,SSW,193,7.0,19.0,87,0.00,,,0.24,meteohub,2013-05-26 19:31:00,
2013-05-27 08:37:00,53.2,47.8,30.04,SSW,206,11.0,16.0,82,0.00,,,0.24,meteohub,2013-05-26 19:37:00,
2013-05-27 08:42:00,53.8,49.5,30.05,WSW,242,13.0,19.0,85,0.00,,,0.24,meteohub,2013-05-26 19:42:00,
2013-05-27 08:47:00,54.3,49.6,30.05,SW,236,11.0,19.0,84,0.00,,,0.24,meteohub,2013-05-26 19:47:00,
2013-05-27 08:52:00,53.8,48.7,30.04,SW,214,12.0,31.0,83,0.00,,,0.24,meteohub,2013-05-26 19:52:00,
2013-05-27 08:57:00,53.2,49.1,30.05,SW,217,16.0,31.0,86,0.00,,,0.24,meteohub,2013-05-26 19:57:00,
2013-05-27 09:02:00,53.4,50.5,30.05,West,276,5.0,31.0,90,0.00,,,0.24,meteohub,2013-05-26 20:02:00,
2013-05-27 09:07:00,53.8,49.6,30.05,West,259,14.0,30.0,86,0.00,,,0.24,meteohub,2013-05-26 20:07:00,
2013-05-27 09:12:00,53.6,48.9,30.05,WSW,248,16.0,22.0,84,0.00,,,0.24,meteohub,2013-05-26 20:12:00,
2013-05-27 09:17:00,53.2,49.5,30.05,WSW,256,10.0,26.0,87,0.00,,,0.24,meteohub,2013-05-26 20:17:00,
2013-05-27 09:22:00,53.4,50.2,30.05,SW,234,14.0,26.0,89,0.00,,,0.24,meteohub,2013-05-26 20:22:00,
2013-05-27 09:27:00,54.1,50.0,30.05,West,260,18.0,26.0,86,0.00,,,0.24,meteohub,2013-05-26 20:27:00,
2013-05-27 09:32:00,54.9,50.2,30.05,WSW,258,15.0,20.0,84,0.00,,,0.24,meteohub,2013-05-26 20:32:00,
2013-05-27 09:37:00,54.3,49.8,30.05,West,259,14.0,21.0,85,0.00,,,0.24,meteohub,2013-05-26 20:37:00,
2013-05-27 09:42:00,53.6,49.8,30.05,SW,229,16.0,22.0,87,0.00,,,0.24,meteohub,2013-05-26 20:42:00,
2013-05-27 09:47:00,53.1,50.2,30.05,West,260,14.0,24.0,90,0.00,,,0.24,meteohub,2013-05-26 20:47:00,
2013-05-27 09:52:00,53.4,50.2,30.05,WSW,246,6.0,24.0,89,0.00,,,0.24,meteohub,2013-05-26 20:52:00,
2013-05-27 09:57:00,54.7,52.3,30.05,WNW,292,5.0,24.0,92,0.00,,,0.24,meteohub,2013-05-26 20:57:00,
2013-05-27 10:02:00,54.3,49.8,30.05,West,259,9.0,19.0,85,0.00,,,0.24,meteohub,2013-05-26 21:02:00,
2013-05-27 10:07:00,54.0,49.6,30.05,West,266,11.0,21.0,85,0.00,,,0.24,meteohub,2013-05-26 21:07:00,
2013-05-27 10:12:00,53.1,49.6,30.05,WSW,250,20.0,21.0,88,0.00,,,0.24,meteohub,2013-05-26 21:12:00,
2013-05-27 10:18:00,51.4,48.4,30.05,West,266,22.0,25.0,89,0.00,,,0.24,meteohub,2013-05-26 21:18:00,
2013-05-27 10:23:00,51.3,48.7,30.05,WSW,255,16.0,27.0,91,0.00,,,0.24,meteohub,2013-05-26 21:23:00,
2013-05-27 10:28:00,51.4,48.9,30.06,WSW,254,8.0,27.0,91,0.00,,,0.24,meteohub,2013-05-26 21:28:00,
2013-05-27 10:33:00,52.0,49.1,30.06,West,266,10.0,24.0,90,0.00,,,0.24,meteohub,2013-05-26 21:33:00,
2013-05-27 10:38:00,53.2,51.6,30.06,West,266,14.0,17.0,94,0.00,,,0.24,meteohub,2013-05-26 21:38:00,
2013-05-27 10:43:00,53.6,49.5,30.06,West,275,16.0,19.0,86,0.00,,,0.24,meteohub,2013-05-26 21:43:00,
2013-05-27 10:48:00,53.8,48.4,30.06,SW,225,9.0,24.0,82,0.00,,,0.24,meteohub,2013-05-26 21:48:00,
2013-05-27 10:53:00,54.3,48.9,30.06,WSW,243,13.0,25.0,82,0.00,,,0.24,meteohub,2013-05-26 21:53:00,
2013-05-27 10:58:00,54.1,48.7,30.06,WSW,252,13.0,25.0,82,0.00,,,0.24,meteohub,2013-05-26 21:58:00,
2013-05-27 11:03:00,54.3,49.8,30.06,SW,223,12.0,21.0,85,0.00,,,0.24,meteohub,2013-05-26 22:03:00,
2013-05-27 11:08:00,53.8,49.1,30.06,West,270,22.0,22.0,84,0.00,,,0.24,meteohub,2013-05-26 22:08:00,
2013-05-27 11:13:00,53.4,48.7,30.06,West,262,13.0,25.0,84,0.00,,,0.24,meteohub,2013-05-26 22:13:00,
2013-05-27 11:18:00,53.8,48.4,30.06,WSW,245,20.0,28.0,82,0.00,,,0.24,meteohub,2013-05-26 22:18:00,
2013-05-27 11:23:00,54.3,48.2,30.06,SSW,210,20.0,31.0,80,0.00,,,0.24,meteohub,2013-05-26 22:23:00,
2013-05-27 11:28:00,54.9,47.5,30.05,WSW,256,30.0,31.0,76,0.00,,,0.24,meteohub,2013-05-26 22:28:00,
2013-05-27 11:33:00,54.7,46.9,30.05,West,273,27.0,36.0,75,0.00,,,0.24,meteohub,2013-05-26 22:33:00,
2013-05-27 11:38:00,54.7,48.4,30.06,West,275,20.0,36.0,79,0.00,,,0.24,meteohub,2013-05-26 22:38:00,
2013-05-27 11:43:00,54.3,46.9,30.06,WSW,245,18.0,36.0,76,0.00,,,0.24,meteohub,2013-05-26 22:43:00,
2013-05-27 11:48:00,54.3,47.7,30.06,SW,220,12.0,34.0,78,0.00,,,0.24,meteohub,2013-05-26 22:48:00,
2013-05-27 11:53:00,54.5,48.2,30.06,WSW,255,24.0,34.0,79,0.00,,,0.24,meteohub,2013-05-26 22:53:00,
2013-05-27 11:58:00,54.3,48.2,30.06,WSW,248,13.0,32.0,80,0.00,,,0.24,meteohub,2013-05-26 22:58:00,
2013-05-27 12:04:00,55.0,48.4,30.06,West,264,24.0,32.0,78,0.00,,,0.24,meteohub,2013-05-26 23:04:00,
2013-05-27 12:09:00,55.6,48.2,30.06,WSW,253,16.0,32.0,76,0.00,,,0.24,meteohub,2013-05-26 23:09:00,
2013-05-27 12:14:00,55.2,47.8,30.06,WSW,244,14.0,32.0,76,0.00,,,0.24,meteohub,2013-05-26 23:14:00,
2013-05-27 12:19:00,55.4,48.9,30.06,SW,229,28.0,30.0,79,0.00,,,0.24,meteohub,2013-05-26 23:19:00,
2013-05-27 12:24:00,54.7,47.7,30.06,West,264,26.0,30.0,77,0.00,,,0.24,meteohub,2013-05-26 23:24:00,
2013-05-27 12:29:00,54.3,47.7,30.06,West,270,21.0,32.0,78,0.00,,,0.24,meteohub,2013-05-26 23:29:00,
2013-05-27 12:34:00,55.0,48.4,30.06,West,276,20.0,32.0,78,0.00,,,0.24,meteohub,2013-05-26 23:34:00,
2013-05-27 12:39:00,55.0,48.0,30.06,WSW,255,18.0,32.0,77,0.00,,,0.24,meteohub,2013-05-26 23:39:00,
2013-05-27 12:44:00,54.7,47.3,30.06,West,274,23.0,26.0,76,0.00,,,0.24,meteohub,2013-05-26 23:44:00,
2013-05-27 12:49:00,54.5,48.2,30.06,West,275,21.0,29.0,79,0.00,,,0.24,meteohub,2013-05-26 23:49:00,
2013-05-27 12:54:00,54.5,47.5,30.06,West,265,26.0,29.0,77,0.00,,,0.24,meteohub,2013-05-26 23:54:00,
2013-05-27 12:59:00,54.1,47.8,30.06,WSW,243,11.0,30.0,79,0.00,,,0.24,meteohub,2013-05-26 23:59:00,
2013-05-27 13:04:00,54.1,47.8,30.06,West,278,25.0,30.0,79,0.00,,,0.24,meteohub,2013-05-27 00:04:00,
2013-05-27 13:10:00,53.8,47.5,30.06,West,271,23.0,30.0,79,0.00,,,0.00,meteohub,2013-05-27 00:10:00,
2013-05-27 13:15:00,53.6,47.8,30.06,WNW,291,21.0,31.0,81,0.00,,,0.00,meteohub,2013-05-27 00:15:00,
2013-05-27 13:20:00,53.4,48.0,30.06,WSW,249,25.0,31.0,82,0.00,,,0.00,meteohub,2013-05-27 00:20:00,
2013-05-27 13:25:00,53.1,47.3,30.07,West,271,22.0,31.0,81,0.00,,,0.00,meteohub,2013-05-27 00:25:00,
2013-05-27 13:30:00,53.2,47.8,30.07,West,279,22.0,28.0,82,0.00,,,0.00,meteohub,2013-05-27 00:30:00,
2013-05-27 13:35:00,53.2,48.2,30.06,West,264,19.0,27.0,83,0.00,,,0.00,meteohub,2013-05-27 00:35:00,
2013-05-27 13:40:00,52.9,47.5,30.07,WSW,258,16.0,27.0,82,0.00,,,0.00,meteohub,2013-05-27 00:40:00,
2013-05-27 13:45:00,52.9,47.8,30.07,WSW,255,8.0,27.0,83,0.00,,,0.00,meteohub,2013-05-27 00:45:00,
2013-05-27 13:50:00,53.2,47.8,30.06,SW,218,4.0,27.0,82,0.00,,,0.00,meteohub,2013-05-27 00:50:00,
2013-05-27 13:55:00,53.4,48.7,30.06,SW,224,4.0,23.0,84,0.00,,,0.00,meteohub,2013-05-27 00:55:00,
2013-05-27 14:00:00,53.4,47.7,30.06,WSW,239,6.0,21.0,81,0.00,,,0.00,meteohub,2013-05-27 01:00:00,
2013-05-27 14:05:00,53.1,47.1,30.07,West,261,6.0,21.0,80,0.00,,,0.00,meteohub,2013-05-27 01:05:00,
2013-05-27 14:10:00,52.9,47.8,30.07,SSW,208,5.0,22.0,83,0.00,,,0.00,meteohub,2013-05-27 01:10:00,
2013-05-27 14:15:00,52.3,46.8,30.06,SW,236,9.0,22.0,81,0.00,,,0.00,meteohub,2013-05-27 01:15:00,
2013-05-27 14:20:00,52.2,47.1,30.07,WSW,247,6.0,18.0,83,0.00,,,0.00,meteohub,2013-05-27 01:20:00,
2013-05-27 14:25:00,52.0,47.3,30.07,SW,219,7.0,16.0,84,0.00,,,0.00,meteohub,2013-05-27 01:25:00,
2013-05-27 14:30:00,51.8,46.8,30.07,SW,232,11.0,21.0,83,0.00,,,0.00,meteohub,2013-05-27 01:30:00,
2013-05-27 14:35:00,51.6,46.9,30.07,SW,222,9.0,21.0,84,0.00,,,0.00,meteohub,2013-05-27 01:35:00,
2013-05-27 14:41:00,51.6,46.9,30.07,WSW,250,7.0,14.0,84,0.00,,,0.00,meteohub,2013-05-27 01:41:00,
2013-05-27 14:46:00,51.4,46.8,30.07,SW,219,5.0,13.0,84,0.00,,,0.00,meteohub,2013-05-27 01:46:00,
2013-05-27 14:51:00,51.4,46.8,30.07,WSW,242,9.0,13.0,84,0.00,,,0.00,meteohub,2013-05-27 01:51:00,
2013-05-27 14:56:00,51.3,47.3,30.07,SW,215,7.0,13.0,86,0.00,,,0.00,meteohub,2013-05-27 01:56:00,
2013-05-27 15:01:00,51.3,47.3,30.07,SW,217,4.0,13.0,86,0.00,,,0.00,meteohub,2013-05-27 02:01:00,
2013-05-27 15:06:00,51.1,47.1,30.07,SSW,207,9.0,12.0,86,0.00,,,0.00,meteohub,2013-05-27 02:06:00,
2013-05-27 15:11:00,51.1,47.1,30.07,SW,216,6.0,14.0,86,0.00,,,0.00,meteohub,2013-05-27 02:11:00,
2013-05-27 15:16:00,50.9,46.9,30.07,SW,228,8.0,14.0,86,0.00,,,0.00,meteohub,2013-05-27 02:16:00,
2013-05-27 15:21:00,50.9,46.9,30.07,SW,220,6.0,14.0,86,0.00,,,0.00,meteohub,2013-05-27 02:21:00,
2013-05-27 15:26:00,50.7,46.8,30.07,WSW,240,7.0,14.0,86,0.00,,,0.00,meteohub,2013-05-27 02:26:00,
2013-05-27 15:31:00,50.7,46.9,30.07,SW,222,6.0,12.0,87,0.00,,,0.00,meteohub,2013-05-27 02:31:00,
2013-05-27 15:36:00,50.5,46.8,30.06,SW,231,8.0,12.0,87,0.00,,,0.00,meteohub,2013-05-27 02:36:00,
2013-05-27 15:41:00,50.4,46.6,30.06,SSW,212,6.0,12.0,87,0.00,,,0.00,meteohub,2013-05-27 02:41:00,
2013-05-27 15:46:00,50.4,46.9,30.06,WSW,240,6.0,12.0,88,0.00,,,0.00,meteohub,2013-05-27 02:46:00,
2013-05-27 15:51:00,50.4,46.6,30.06,SSW,206,9.0,13.0,87,0.00,,,0.00,meteohub,2013-05-27 02:51:00,
2013-05-27 15:56:00,50.2,46.2,30.06,WSW,252,6.0,13.0,86,0.00,,,0.00,meteohub,2013-05-27 02:56:00,
2013-05-27 16:01:00,50.2,46.2,30.06,SSE,156,6.0,13.0,86,0.00,,,0.00,meteohub,2013-05-27 03:01:00,
2013-05-27 16:06:00,50.0,46.2,30.06,SW,214,10.0,13.0,87,0.00,,,0.00,meteohub,2013-05-27 03:06:00,
2013-05-27 16:11:00,49.8,46.0,30.07,SSW,207,7.0,13.0,87,0.00,,,0.00,meteohub,2013-05-27 03:11:00,
2013-05-27 16:17:00,49.8,46.0,30.07,WSW,246,11.0,13.0,87,0.00,,,0.00,meteohub,2013-05-27 03:17:00,
2013-05-27 16:22:00,49.8,46.4,30.06,South,172,12.0,14.0,88,0.00,,,0.00,meteohub,2013-05-27 03:22:00,
2013-05-27 16:27:00,49.8,46.4,30.07,SSW,202,7.0,14.0,88,0.00,,,0.00,meteohub,2013-05-27 03:27:00,
2013-05-27 16:32:00,49.6,46.2,30.06,SW,215,8.0,14.0,88,0.00,,,0.00,meteohub,2013-05-27 03:32:00,
2013-05-27 16:37:00,49.6,46.2,30.06,SW,221,12.0,14.0,88,0.00,,,0.00,meteohub,2013-05-27 03:37:00,
2013-05-27 16:42:00,49.6,46.2,30.06,SW,220,12.0,15.0,88,0.00,,,0.00,meteohub,2013-05-27 03:42:00,
2013-05-27 16:47:00,49.6,45.9,30.06,SW,226,11.0,15.0,87,0.00,,,0.00,meteohub,2013-05-27 03:47:00,
2013-05-27 16:52:00,49.6,46.2,30.06,SW,233,10.0,15.0,88,0.00,,,0.00,meteohub,2013-05-27 03:52:00,
2013-05-27 16:57:00,49.6,45.9,30.06,SW,217,5.0,15.0,87,0.00,,,0.00,meteohub,2013-05-27 03:57:00,
2013-05-27 17:01:00,49.6,45.7,30.06,SW,223,10.0,15.0,86,0.00,,,0.00,meteohub,2013-05-27 04:01:00,
2013-05-27 17:02:00,49.6,45.7,30.06,SW,214,10.0,15.0,86,0.00,,,0.00,meteohub,2013-05-27 04:02:00,
2013-05-27 17:03:00,49.6,45.9,30.06,SW,229,11.0,15.0,87,0.00,,,0.00,meteohub,2013-05-27 04:03:00,
2013-05-27 17:05:00,49.6,45.9,30.06,SSW,212,8.0,15.0,87,0.00,,,0.00,meteohub,2013-05-27 04:05:00,
2013-05-27 17:11:00,49.6,45.9,30.06,SW,214,10.0,15.0,87,0.00,,,0.00,meteohub,2013-05-27 04:11:00,
2013-05-27 17:16:00,49.3,45.9,30.06,SSW,200,8.0,12.0,88,0.00,,,0.00,meteohub,2013-05-27 04:16:00,
2013-05-27 17:21:00,49.3,45.9,30.06,SSE,165,8.0,12.0,88,0.00,,,0.00,meteohub,2013-05-27 04:21:00,
2013-05-27 17:26:00,49.3,45.9,30.06,SW,217,4.0,13.0,88,0.00,,,0.00,meteohub,2013-05-27 04:26:00,
2013-05-27 17:31:00,49.1,45.7,30.06,SSW,210,6.0,13.0,88,0.00,,,0.00,meteohub,2013-05-27 04:31:00,
2013-05-27 17:36:00,48.9,45.5,30.06,SW,221,5.0,11.0,88,0.00,,,0.00,meteohub,2013-05-27 04:36:00,
2013-05-27 17:41:00,48.9,45.9,30.06,SSW,207,3.0,11.0,89,0.00,,,0.00,meteohub,2013-05-27 04:41:00,
2013-05-27 17:46:00,48.7,45.7,30.06,SW,229,3.0,11.0,89,0.00,,,0.00,meteohub,2013-05-27 04:46:00,
2013-05-27 17:51:00,48.7,45.7,30.06,SW,224,1.0,11.0,89,0.00,,,0.00,meteohub,2013-05-27 04:51:00,
2013-05-27 17:56:00,48.7,45.7,30.06,South,179,2.0,7.0,89,0.00,,,0.00,meteohub,2013-05-27 04:56:00,
2013-05-27 18:01:00,48.7,45.7,30.06,SW,219,4.0,9.0,89,0.00,,,0.00,meteohub,2013-05-27 05:01:00,
2013-05-27 18:06:00,48.7,45.9,30.06,South,190,3.0,9.0,90,0.00,,,0.00,meteohub,2013-05-27 05:06:00,
2013-05-27 18:11:00,48.7,45.9,30.06,South,179,2.0,9.0,90,0.00,,,0.00,meteohub,2013-05-27 05:11:00,
2013-05-27 18:16:00,48.7,45.9,30.06,SSW,206,1.0,6.0,90,0.00,,,0.00,meteohub,2013-05-27 05:16:00,
2013-05-27 18:21:00,48.7,45.9,30.06,SSW,198,3.0,4.0,90,0.00,,,0.00,meteohub,2013-05-27 05:21:00,
2013-05-27 18:26:00,48.7,45.9,30.06,SSW,199,3.0,4.0,90,0.00,,,0.00,meteohub,2013-05-27 05:26:00,
2013-05-27 18:31:00,48.7,45.7,30.05,SSW,195,2.0,6.0,89,0.00,,,0.00,meteohub,2013-05-27 05:31:00,
2013-05-27 18:36:00,48.7,45.7,30.05,SSW,192,3.0,6.0,89,0.00,,,0.00,meteohub,2013-05-27 05:36:00,
2013-05-27 18:41:00,48.7,45.7,30.05,SE,134,1.0,6.0,89,0.00,,,0.00,meteohub,2013-05-27 05:41:00,
2013-05-27 18:47:00,48.9,45.5,30.05,WNW,289,4.0,6.0,88,0.00,,,0.00,meteohub,2013-05-27 05:47:00,
2013-05-27 18:52:00,48.9,45.5,30.05,SSE,147,4.0,7.0,88,0.00,,,0.00,meteohub,2013-05-27 05:52:00,
2013-05-27 18:57:00,48.9,45.5,30.04,SSE,165,3.0,7.0,88,0.00,,,0.00,meteohub,2013-05-27 05:57:00,
2013-05-27 19:02:00,48.9,45.1,30.04,South,179,4.0,7.0,87,0.00,,,0.00,meteohub,2013-05-27 06:02:00,
2013-05-27 19:07:00,49.1,45.3,30.04,SW,221,3.0,6.0,87,0.00,,,0.00,meteohub,2013-05-27 06:07:00,
2013-05-27 19:12:00,49.1,45.3,30.04,SSE,160,3.0,7.0,87,0.00,,,0.00,meteohub,2013-05-27 06:12:00,
2013-05-27 19:17:00,49.1,45.3,30.03,SSE,147,3.0,7.0,87,0.00,,,0.00,meteohub,2013-05-27 06:17:00,
2013-05-27 19:22:00,49.3,45.5,30.03,SSE,168,3.0,7.0,87,0.00,,,0.00,meteohub,2013-05-27 06:22:00,
2013-05-27 19:27:00,49.3,45.5,30.03,SW,221,4.0,7.0,87,0.00,,,0.00,meteohub,2013-05-27 06:27:00,
2013-05-27 19:32:00,49.3,45.5,30.03,SSE,151,3.0,8.0,87,0.00,,,0.00,meteohub,2013-05-27 06:32:00,
2013-05-27 19:37:00,49.3,45.5,30.02,South,169,4.0,8.0,87,0.00,,,0.00,meteohub,2013-05-27 06:37:00,
2013-05-27 19:42:00,49.3,45.5,30.02,ENE,62,3.0,8.0,87,0.00,,,0.00,meteohub,2013-05-27 06:42:00,
2013-05-27 19:47:00,49.1,45.3,30.02,South,179,4.0,8.0,87,0.00,,,0.00,meteohub,2013-05-27 06:47:00,
2013-05-27 19:52:00,49.3,45.5,30.02,South,186,3.0,7.0,87,0.00,,,0.00,meteohub,2013-05-27 06:52:00,
2013-05-27 19:57:00,49.3,45.5,30.02,SW,221,4.0,7.0,87,0.00,,,0.00,meteohub,2013-05-27 06:57:00,
2013-05-27 20:02:00,49.3,45.5,30.01,SSW,196,3.0,7.0,87,0.00,,,0.00,meteohub,2013-05-27 07:02:00,
2013-05-27 20:08:00,49.3,45.5,30.01,SW,214,2.0,7.0,87,0.00,,,0.00,meteohub,2013-05-27 07:08:00,
2013-05-27 20:13:00,49.3,45.5,30.01,SSE,150,3.0,7.0,87,0.00,,,0.00,meteohub,2013-05-27 07:13:00,
2013-05-27 20:18:00,49.3,45.5,30.01,SW,227,4.0,6.0,87,0.00,,,0.00,meteohub,2013-05-27 07:18:00,
2013-05-27 20:23:00,49.5,45.7,30.00,South,174,2.0,6.0,87,0.00,,,0.00,meteohub,2013-05-27 07:23:00,
2013-05-27 20:28:00,49.5,45.7,30.00,South,174,3.0,6.0,87,0.00,,,0.00,meteohub,2013-05-27 07:28:00,
2013-05-27 20:33:00,49.3,45.5,30.00,SSW,197,3.0,6.0,87,0.00,,,0.00,meteohub,2013-05-27 07:33:00,
2013-05-27 20:38:00,49.3,45.5,30.00,South,174,2.0,6.0,87,0.00,,,0.00,meteohub,2013-05-27 07:38:00,
2013-05-27 20:43:00,49.3,45.5,30.00,SSW,208,2.0,6.0,87,0.00,,,0.00,meteohub,2013-05-27 07:43:00,
2013-05-27 20:48:00,49.3,45.5,30.00,SW,224,2.0,6.0,87,0.00,,,0.00,meteohub,2013-05-27 07:48:00,
2013-05-27 20:53:00,49.3,45.5,30.00,South,185,2.0,5.0,87,0.00,,,0.00,meteohub,2013-05-27 07:53:00,
2013-05-27 20:58:00,49.1,45.7,30.00,SW,221,1.0,5.0,88,0.00,,,0.00,meteohub,2013-05-27 07:58:00,
2013-05-27 21:03:00,49.1,45.7,29.99,WSW,240,3.0,4.0,88,0.00,,,0.00,meteohub,2013-05-27 08:03:00,
2013-05-27 21:08:00,48.9,45.5,29.99,SSE,164,2.0,5.0,88,0.00,,,0.00,meteohub,2013-05-27 08:08:00,
2013-05-27 21:13:00,48.9,45.5,29.99,SSW,199,1.0,5.0,88,0.00,,,0.00,meteohub,2013-05-27 08:13:00,
2013-05-27 21:18:00,48.9,45.5,29.99,SSW,194,2.0,5.0,88,0.00,,,0.00,meteohub,2013-05-27 08:18:00,
2013-05-27 21:23:00,48.9,45.5,29.99,SSW,192,2.0,5.0,88,0.00,,,0.00,meteohub,2013-05-27 08:23:00,
2013-05-27 21:28:00,48.9,45.9,29.99,SSW,203,2.0,5.0,89,0.00,,,0.00,meteohub,2013-05-27 08:28:00,
2013-05-27 21:33:00,48.9,45.9,29.99,SSW,199,2.0,5.0,89,0.00,,,0.00,meteohub,2013-05-27 08:33:00,
2013-05-27 21:38:00,48.9,45.9,29.99,SSW,196,2.0,5.0,89,0.00,,,0.00,meteohub,2013-05-27 08:38:00,
2013-05-27 21:43:00,48.9,45.9,29.99,SSW,205,1.0,6.0,89,0.00,,,0.00,meteohub,2013-05-27 08:43:00,
2013-05-27 21:48:00,48.7,45.7,29.99,SW,217,4.0,6.0,89,0.00,,,0.00,meteohub,2013-05-27 08:48:00,
2013-05-27 21:53:00,48.7,45.9,29.98,South,190,1.0,7.0,90,0.00,,,0.00,meteohub,2013-05-27 08:53:00,
2013-05-27 21:58:00,48.6,45.7,29.98,SSW,196,2.0,7.0,90,0.00,,,0.00,meteohub,2013-05-27 08:58:00,
2013-05-27 22:04:00,48.4,45.9,29.98,SW,224,5.0,8.0,91,0.00,,,0.00,meteohub,2013-05-27 09:04:00,
2013-05-27 22:09:00,48.4,45.9,29.98,SW,224,4.0,8.0,91,0.00,,,0.00,meteohub,2013-05-27 09:09:00,
2013-05-27 22:14:00,48.2,46.0,29.98,SW,223,2.0,8.0,92,0.00,,,0.00,meteohub,2013-05-27 09:14:00,
2013-05-27 22:19:00,48.0,45.9,29.97,WSW,245,5.0,6.0,92,0.00,,,0.00,meteohub,2013-05-27 09:19:00,
2013-05-27 22:24:00,47.8,45.9,29.97,South,188,2.0,7.0,93,0.00,,,0.00,meteohub,2013-05-27 09:24:00,
2013-05-27 22:29:00,47.8,45.9,29.97,South,171,2.0,7.0,93,0.00,,,0.00,meteohub,2013-05-27 09:29:00,
2013-05-27 22:34:00,47.8,46.2,29.97,SSW,197,3.0,7.0,94,0.00,,,0.00,meteohub,2013-05-27 09:34:00,
2013-05-27 22:39:00,47.7,46.0,29.97,SW,232,3.0,5.0,94,0.00,,,0.00,meteohub,2013-05-27 09:39:00,
2013-05-27 22:44:00,47.5,45.9,29.96,SSE,153,1.0,5.0,94,0.00,,,0.00,meteohub,2013-05-27 09:44:00,
2013-05-27 22:49:00,47.5,46.0,29.96,SSW,213,3.0,5.0,95,0.01,,,0.01,meteohub,2013-05-27 09:49:00,
2013-05-27 22:54:00,47.3,46.2,29.96,SE,130,2.0,5.0,96,0.01,,,0.01,meteohub,2013-05-27 09:54:00,
2013-05-27 22:59:00,47.1,46.0,29.96,SW,217,2.0,5.0,96,0.01,,,0.01,meteohub,2013-05-27 09:59:00,
2013-05-27 23:04:00,47.1,46.4,29.96,East,87,2.0,5.0,97,0.02,,,0.02,meteohub,2013-05-27 10:04:00,
2013-05-27 23:09:00,47.1,46.4,29.95,South,190,2.0,5.0,97,0.02,,,0.02,meteohub,2013-05-27 10:09:00,
2013-05-27 23:14:00,46.9,46.2,29.95,SSW,208,4.0,6.0,97,0.02,,,0.02,meteohub,2013-05-27 10:14:00,
2013-05-27 23:19:00,47.1,46.6,29.95,South,179,1.0,6.0,98,0.03,,,0.03,meteohub,2013-05-27 10:19:00,
2013-05-27 23:24:00,46.9,46.4,29.95,SSW,200,0.0,6.0,98,0.03,,,0.03,meteohub,2013-05-27 10:24:00,
2013-05-27 23:29:00,46.9,46.4,29.94,South,179,2.0,5.0,98,0.04,,,0.04,meteohub,2013-05-27 10:29:00,
2013-05-27 23:34:00,46.9,46.4,29.94,SSW,205,1.0,5.0,98,0.04,,,0.04,meteohub,2013-05-27 10:34:00,
2013-05-27 23:39:00,46.9,46.4,29.94,SSE,148,2.0,5.0,98,0.05,,,0.05,meteohub,2013-05-27 10:39:00,
2013-05-27 23:44:00,46.9,46.4,29.93,SSE,165,2.0,5.0,98,0.05,,,0.05,meteohub,2013-05-27 10:44:00,
2013-05-27 23:49:00,47.3,46.8,29.93,SSE,161,2.0,4.0,98,0.05,,,0.06,meteohub,2013-05-27 10:49:00,
2013-05-27 23:54:00,47.7,47.5,29.93,SSW,213,6.0,7.0,99,0.05,,,0.06,meteohub,2013-05-27 10:54:00,
2013-05-27 23:59:00,48.0,47.8,29.93,WSW,248,4.0,7.0,99,0.06,,,0.07,meteohub,2013-05-27 10:59:00,